createdAt,value
2023-01-28T16:47:42.832Z,36.30
2023-01-28T16:50:21.461Z,34.10
2023-01-28T16:52:59.394Z,34.20
2023-01-28T16:55:49.729Z,38.50
2023-01-28T16:58:48.715Z,30.40
2023-01-28T17:01:40.658Z,26.70
2023-01-28T17:04:40.725Z,26.70
2023-01-28T17:07:32.918Z,27.80
2023-01-28T17:10:51.981Z,29.80
2023-01-28T17:13:46.776Z,27.70
2023-01-28T17:33:26.685Z,23.10
2023-01-28T18:02:19.688Z,24.20
2023-01-28T18:12:37.998Z,30.00
2023-01-28T18:43:17.033Z,34.90
2023-01-28T18:46:15.276Z,31.90
2023-01-28T18:49:13.854Z,28.80
2023-01-28T18:52:42.297Z,29.20
2023-01-28T18:56:02.023Z,28.60
2023-01-28T18:58:32.190Z,27.50
2023-01-28T19:01:06.151Z,26.30
2023-01-28T19:03:36.186Z,36.10
2023-01-28T19:06:07.081Z,30.60
2023-01-28T19:08:36.974Z,36.50
2023-01-28T19:11:06.584Z,36.30
2023-01-28T19:13:35.858Z,35.60
2023-01-28T19:16:06.055Z,35.10
2023-01-28T19:18:35.450Z,27.20
2023-01-28T19:21:05.885Z,30.70
2023-01-28T19:23:49.201Z,26.60
2023-01-28T19:26:20.589Z,29.10
2023-01-28T19:28:50.258Z,25.70
2023-01-28T19:31:21.446Z,26.30
2023-01-28T19:36:54.415Z,26.90
2023-01-28T19:39:28.101Z,24.50
2023-01-28T19:42:02.391Z,26.80
2023-01-28T19:44:36.408Z,28.20
2023-01-28T19:47:09.604Z,27.60
2023-01-28T19:49:42.782Z,28.30
2023-01-28T19:52:15.513Z,27.20
2023-01-28T19:55:52.072Z,25.80
2023-01-28T20:41:29.242Z,9.20
2023-01-28T20:44:48.889Z,12.30
2023-01-28T20:47:22.331Z,12.10
2023-01-28T20:50:54.803Z,13.20
2023-01-28T20:53:48.347Z,16.40
2023-01-28T20:57:01.663Z,15.40
2023-01-28T20:59:34.547Z,21.90
2023-01-28T21:02:10.073Z,16.90
2023-01-28T21:04:42.771Z,27.10
2023-01-28T21:07:16.318Z,17.00
2023-01-28T21:09:48.842Z,17.30
2023-01-28T21:12:21.483Z,14.50
2023-01-28T21:14:54.255Z,16.60
2023-01-28T21:18:28.926Z,17.80
2023-01-28T22:29:16.209Z,22.40
2023-01-28T22:33:06.214Z,19.10
2023-01-28T22:35:39.811Z,21.30
2023-01-28T22:39:36.713Z,19.20
2023-01-28T22:42:10.785Z,15.40
2023-01-28T22:58:49.677Z,14.10
2023-01-28T23:20:35.054Z,17.60
2023-01-28T23:34:08.521Z,17.90
2023-01-28T23:36:44.137Z,14.90
2023-01-28T23:40:30.965Z,14.40
2023-01-28T23:43:07.095Z,14.40
2023-01-28T23:47:45.349Z,13.50
